Time;durP1;ratioP1;P1;durP2;ratioP2;P2;SDS_P1;SDS_P2;PMS_P1;PMS_P2;Temp;Humidity;BMP_temperature;BMP_pressure;BME280_temperature;BME280_humidity;BME280_pressure;Samples;Min_cycle;Max_cycle;Signal;HPM_P1;HPM_P2
2023/09/25 00:00:34;;;;;;;2.88;2.22;;;;;;;10.74;100.00;102133.31;5059297;28;20029;-75
2023/09/25 00:03:00;;;;;;;3.50;2.70;;;;;;;10.73;100.00;102126.38;5064234;28;20033;-75
2023/09/25 00:05:28;;;;;;;4.65;3.00;;;;;;;10.72;100.00;102131.59;5061006;28;20087;-75
2023/09/25 00:07:54;;;;;;;4.72;3.17;;;;;;;10.65;100.00;102122.91;5066116;28;20886;-75
2023/09/25 00:10:19;;;;;;;4.72;3.00;;;;;;;10.67;100.00;102135.97;5057081;28;20024;-75
2023/09/25 00:12:45;;;;;;;5.68;2.60;;;;;;;10.68;100.00;102132.47;5067292;28;20075;-75
2023/09/25 00:15:10;;;;;;;6.20;2.83;;;;;;;10.64;100.00;102129.00;5059806;28;20025;-75
2023/09/25 00:17:37;;;;;;;5.43;2.97;;;;;;;10.62;100.00;102129.88;5062075;28;20025;-75
2023/09/25 00:20:04;;;;;;;5.45;2.88;;;;;;;10.62;100.00;102133.34;5059085;28;20354;-75
2023/09/25 00:22:30;;;;;;;5.53;2.40;;;;;;;10.60;100.00;102129.03;5055012;28;20033;-75
2023/09/25 00:24:56;;;;;;;5.72;2.80;;;;;;;10.60;100.00;102131.66;5057277;28;20013;-75
2023/09/25 00:27:22;;;;;;;6.20;2.80;;;;;;;10.59;100.00;102135.97;5065715;28;20016;-75
2023/09/25 00:29:48;;;;;;;5.15;3.00;;;;;;;10.54;100.00;102138.59;5061442;28;20472;-75
2023/09/25 00:32:14;;;;;;;8.63;3.08;;;;;;;10.49;100.00;102137.72;5059993;28;20017;-75
2023/09/25 00:34:39;;;;;;;5.35;2.95;;;;;;;10.49;100.00;102140.34;5060300;28;20040;-75
2023/09/25 00:37:04;;;;;;;7.53;2.55;;;;;;;10.45;100.00;102133.41;5066887;28;20483;-75
2023/09/25 00:39:30;;;;;;;4.72;2.83;;;;;;;10.44;100.00;102131.69;5059493;28;20404;-75
2023/09/25 00:41:55;;;;;;;5.13;2.80;;;;;;;10.44;100.00;102138.63;5062128;28;20024;-75
2023/09/25 00:44:22;;;;;;;5.88;3.42;;;;;;;10.42;100.00;102140.38;5059889;28;20086;-74
2023/09/25 00:46:48;;;;;;;6.47;3.20;;;;;;;10.38;100.00;102143.84;5065363;28;20037;-75
2023/09/25 00:49:14;;;;;;;4.93;3.42;;;;;;;10.35;100.00;102143.84;5060322;28;20040;-75
2023/09/25 00:51:41;;;;;;;5.25;3.38;;;;;;;10.33;100.00;102141.25;5063914;28;20121;-75
2023/09/25 00:54:08;;;;;;;5.78;3.20;;;;;;;10.26;100.00;102134.31;5062469;28;20565;-75
2023/09/25 00:56:34;;;;;;;5.47;3.17;;;;;;;10.27;100.00;102139.53;5061806;28;20392;-74
2023/09/25 00:59:00;;;;;;;5.00;3.10;;;;;;;10.26;100.00;102136.91;5066593;28;20033;-75
2023/09/25 01:01:25;;;;;;;6.25;3.20;;;;;;;10.24;100.00;102142.09;5065287;28;20526;-75
2023/09/25 01:03:51;;;;;;;5.32;3.38;;;;;;;10.21;100.00;102143.84;5065780;28;20030;-75
2023/09/25 01:06:18;;;;;;;7.45;3.50;;;;;;;10.18;100.00;102138.66;5065681;28;20115;-75
2023/09/25 01:08:44;;;;;;;5.57;3.28;;;;;;;10.18;100.00;102138.66;5060557;28;20020;-74
2023/09/25 01:11:09;;;;;;;4.57;3.50;;;;;;;10.18;100.00;102142.13;5066282;28;20483;-75
2023/09/25 01:13:35;;;;;;;5.50;3.15;;;;;;;10.16;100.00;102145.59;5065360;28;20029;-75
2023/09/25 01:16:01;;;;;;;6.53;3.15;;;;;;;10.17;100.00;102144.69;5065606;28;20472;-75
2023/09/25 01:18:27;;;;;;;5.22;3.45;;;;;;;10.13;100.00;102153.41;5064649;28;20037;-75
2023/09/25 01:20:52;;;;;;;7.65;3.78;;;;;;;10.10;100.00;102159.47;5065791;28;20784;-75
2023/09/25 01:23:18;;;;;;;6.00;3.30;;;;;;;10.09;100.00;102147.31;5067558;28;20112;-75
2023/09/25 01:25:43;;;;;;;4.65;3.25;;;;;;;10.04;100.00;102134.31;5058600;28;20491;-75
2023/09/25 01:28:09;;;;;;;3.70;2.70;;;;;;;10.05;100.00;102140.38;5070106;28;20029;-75
2023/09/25 01:30:35;;;;;;;6.43;3.58;;;;;;;10.00;100.00;102142.97;5055495;28;20078;-75
2023/09/25 01:33:00;;;;;;;5.78;2.83;;;;;;;10.00;100.00;102136.91;5060947;28;20032;-75
2023/09/25 01:35:26;;;;;;;5.90;3.10;;;;;;;9.98;100.00;102133.44;5061148;28;20041;-75
2023/09/25 01:38:00;;;;;;;5.22;3.03;;;;;;;9.98;100.00;102141.28;5056508;28;20021;-75
2023/09/25 01:40:26;;;;;;;4.57;3.20;;;;;;;9.96;100.00;102135.19;5065834;28;20028;-75
2023/09/25 01:42:52;;;;;;;7.50;3.30;;;;;;;9.96;100.00;102132.56;5064679;28;20495;-75
2023/09/25 01:45:18;;;;;;;4.45;2.83;;;;;;;9.94;100.00;102132.59;5059438;28;20032;-75
2023/09/25 01:47:50;;;;;;;4.15;2.90;;;;;;;9.94;100.00;102135.19;5066118;28;20025;-75
2023/09/25 01:50:24;;;;;;;4.28;2.80;;;;;;;9.91;100.00;102137.78;5064567;28;20071;-75
2023/09/25 01:53:01;;;;;;;4.00;3.03;;;;;;;9.89;100.00;102139.53;5060826;28;20036;-75
2023/09/25 01:55:28;;;;;;;5.15;3.10;;;;;;;9.87;100.00;102142.97;5063529;28;20036;-75
2023/09/25 01:57:53;;;;;;;4.38;2.38;;;;;;;9.83;100.00;102134.31;5066017;28;20033;-75
2023/09/25 02:00:19;;;;;;;3.95;2.90;;;;;;;9.84;100.00;102136.03;5063614;28;20412;-75
2023/09/25 02:02:46;;;;;;;6.53;3.63;;;;;;;9.81;100.00;102125.63;5068061;28;20029;-75
2023/09/25 02:05:11;;;;;;;5.43;2.70;;;;;;;9.78;100.00;102118.69;5061116;28;20533;-75
2023/09/25 02:07:37;;;;;;;3.55;2.80;;;;;;;9.81;100.00;102125.63;5066029;28;20029;-75
2023/09/25 02:10:02;;;;;;;4.63;2.67;;;;;;;9.80;100.00;102127.34;5071918;28;20099;-76
2023/09/25 02:12:27;;;;;;;4.03;2.58;;;;;;;9.81;100.00;102130.84;5069348;28;20362;-75
2023/09/25 02:14:58;;;;;;;5.03;2.95;;;;;;;9.79;100.00;102120.41;5070846;28;20040;-75
2023/09/25 02:17:23;;;;;;;3.60;2.80;;;;;;;9.77;100.00;102124.75;5070511;28;20036;-75
2023/09/25 02:19:48;;;;;;;7.53;3.05;;;;;;;9.73;100.00;102115.19;5069553;28;20184;-75
2023/09/25 02:22:14;;;;;;;5.05;2.92;;;;;;;9.74;100.00;102121.28;5070326;28;20491;-75
2023/09/25 02:24:39;;;;;;;4.00;2.85;;;;;;;9.75;100.00;102115.22;5072716;28;20028;-75
2023/09/25 02:27:05;;;;;;;5.90;2.90;;;;;;;9.75;100.00;102120.44;5068998;28;20487;-75
2023/09/25 02:29:30;;;;;;;5.72;3.10;;;;;;;9.76;100.00;102119.56;5072269;28;20033;-74
2023/09/25 02:31:56;;;;;;;6.28;3.10;;;;;;;9.77;100.00;102121.28;5072405;28;20052;-75
2023/09/25 02:34:21;;;;;;;4.75;3.40;;;;;;;9.74;100.00;102114.31;5071200;28;20107;-75
2023/09/25 02:36:46;;;;;;;3.63;2.92;;;;;;;9.74;100.00;102121.28;5072604;28;20044;-75
2023/09/25 02:39:13;;;;;;;6.65;2.97;;;;;;;9.72;100.00;102123.88;5068389;28;20090;-75
2023/09/25 02:41:39;;;;;;;4.70;3.13;;;;;;;9.69;100.00;102120.41;5072065;28;20054;-75
2023/09/25 02:44:04;;;;;;;4.47;2.65;;;;;;;9.74;100.00;102118.66;5062828;28;20084;-75
2023/09/25 02:46:30;;;;;;;4.25;3.20;;;;;;;9.76;100.00;102119.56;5065738;28;20040;-75
2023/09/25 02:48:55;;;;;;;4.60;2.95;;;;;;;9.77;100.00;102123.88;5062534;28;20563;-75
2023/09/25 02:51:20;;;;;;;5.78;2.90;;;;;;;9.76;100.00;102117.81;5061817;28;20062;-75
2023/09/25 02:53:47;;;;;;;4.28;2.65;;;;;;;9.76;100.00;102119.56;5061703;28;20364;-75
2023/09/25 02:56:12;;;;;;;3.90;2.80;;;;;;;9.77;100.00;102121.28;5063127;28;20056;-75
2023/09/25 02:58:38;;;;;;;4.40;2.88;;;;;;;9.75;100.00;102113.47;5067548;28;20110;-75
2023/09/25 03:01:03;;;;;;;4.18;2.53;;;;;;;9.71;100.00;102103.94;5070421;28;20028;-75
2023/09/25 03:03:29;;;;;;;5.75;3.83;;;;;;;9.75;100.00;102115.22;5068625;28;20115;-75
2023/09/25 03:05:54;;;;;;;3.75;2.85;;;;;;;9.76;100.00;102104.78;5068907;28;20103;-75
2023/09/25 03:08:20;;;;;;;4.35;2.80;;;;;;;9.75;100.00;102113.47;5058182;28;20533;-74
2023/09/25 03:10:45;;;;;;;3.35;2.70;;;;;;;9.78;100.00;102120.44;5058662;28;20027;-75
2023/09/25 03:13:10;;;;;;;5.22;3.10;;;;;;;9.77;100.00;102116.06;5067295;28;20025;-75
2023/09/25 03:15:35;;;;;;;5.53;2.92;;;;;;;9.76;100.00;102122.16;5065334;28;20476;-75
2023/09/25 03:18:01;;;;;;;3.85;2.97;;;;;;;9.74;100.00;102119.53;5062209;28;20044;-75
2023/09/25 03:20:26;;;;;;;3.83;2.65;;;;;;;9.71;100.00;102113.47;5064929;28;20032;-75
2023/09/25 03:22:52;;;;;;;5.20;3.50;;;;;;;9.68;100.00;102116.06;5067900;28;20111;-75
2023/09/25 03:25:17;;;;;;;5.53;3.30;;;;;;;9.69;100.00;102118.69;5068231;28;20513;-75
2023/09/25 03:27:43;;;;;;;6.18;3.03;;;;;;;9.71;100.00;102116.06;5061984;28;20029;-75
2023/09/25 03:30:09;;;;;;;4.18;2.95;;;;;;;9.72;100.00;102112.63;5065635;28;20021;-75
2023/09/25 03:32:34;;;;;;;7.05;2.95;;;;;;;9.71;100.00;102109.16;5068339;28;20472;-75
2023/09/25 03:35:00;;;;;;;4.28;2.85;;;;;;;9.71;100.00;102114.34;5068027;28;20043;-75
2023/09/25 03:37:26;;;;;;;3.55;2.88;;;;;;;9.72;100.00;102113.47;5063082;28;20025;-75
2023/09/25 03:39:51;;;;;;;4.90;3.10;;;;;;;9.64;100.00;102106.50;5062206;28;20025;-75
2023/09/25 03:42:16;;;;;;;5.63;3.00;;;;;;;9.72;100.00;102110.00;5070517;28;20071;-75
2023/09/25 03:44:41;;;;;;;5.00;2.90;;;;;;;9.66;100.00;102104.78;5064670;28;20047;-75
2023/09/25 03:47:07;;;;;;;6.55;3.10;;;;;;;9.72;100.00;102112.63;5070890;28;20024;-75
2023/09/25 03:49:32;;;;;;;4.82;3.10;;;;;;;9.69;100.00;102117.81;5071731;28;20459;-75
2023/09/25 03:51:57;;;;;;;5.15;3.22;;;;;;;9.68;100.00;102116.06;5067008;28;20111;-75
2023/09/25 03:54:23;;;;;;;5.68;3.10;;;;;;;9.68;100.00;102116.94;5070112;28;20024;-75
2023/09/25 03:56:48;;;;;;;4.72;3.10;;;;;;;9.71;100.00;102113.47;5065870;28;20445;-75
2023/09/25 03:59:13;;;;;;;4.32;3.08;;;;;;;9.72;100.00;102120.44;5068072;28;20024;-75
2023/09/25 04:01:39;;;;;;;9.00;3.55;;;;;;;9.70;100.00;102119.53;5067097;28;20021;-75
2023/09/25 04:04:06;;;;;;;6.85;3.60;;;;;;;9.72;100.00;102121.28;5070349;28;20066;-75
2023/09/25 04:06:32;;;;;;;6.72;2.85;;;;;;;9.74;100.00;102127.34;5066084;28;20115;-75
2023/09/25 04:08:57;;;;;;;4.85;3.10;;;;;;;9.68;100.00;102118.66;5069703;28;20058;-75
2023/09/25 04:11:23;;;;;;;5.47;3.25;;;;;;;9.75;100.00;102130.84;5066266;28;20032;-75
2023/09/25 04:13:48;;;;;;;4.90;3.40;;;;;;;9.75;100.00;102125.63;5068165;28;20551;-75
2023/09/25 04:16:14;;;;;;;4.88;3.00;;;;;;;9.74;100.00;102129.09;5067025;28;20055;-75
2023/09/25 04:18:40;;;;;;;6.60;3.25;;;;;;;9.72;100.00;102136.91;5067949;28;20033;-75
2023/09/25 04:21:11;;;;;;;7.47;2.90;;;;;;;9.73;100.00;102132.56;5068445;28;20021;-75
2023/09/25 04:23:36;;;;;;;5.68;3.30;;;;;;;9.75;100.00;102130.84;5070431;28;20025;-75
2023/09/25 04:26:03;;;;;;;5.43;3.05;;;;;;;9.73;100.00;102128.22;5067207;28;20032;-75
2023/09/25 04:28:29;;;;;;;5.50;2.90;;;;;;;9.74;100.00;102123.88;5070242;28;20472;-75
2023/09/25 04:30:57;;;;;;;6.50;3.20;;;;;;;9.80;100.00;102129.09;5067290;28;20021;-75
2023/09/25 04:33:22;;;;;;;7.35;3.20;;;;;;;9.78;100.00;102125.63;5074334;28;20460;-75
2023/09/25 04:35:47;;;;;;;7.00;3.83;;;;;;;9.81;100.00;102130.84;5070685;28;20044;-75
2023/09/25 04:38:12;;;;;;;4.53;3.03;;;;;;;9.84;100.00;102130.81;5074035;28;20031;-75
2023/09/25 04:40:38;;;;;;;4.68;3.25;;;;;;;9.84;100.00;102117.78;5069731;28;20080;-75
2023/09/25 04:43:03;;;;;;;4.57;3.05;;;;;;;9.92;100.00;102136.06;5073571;28;20032;-75
2023/09/25 04:45:29;;;;;;;5.38;3.40;;;;;;;9.97;100.00;102129.09;5061711;28;20041;-75
2023/09/25 04:47:55;;;;;;;6.07;3.10;;;;;;;9.93;100.00;102133.44;5068716;28;20017;-75
2023/09/25 04:50:21;;;;;;;5.97;3.17;;;;;;;9.92;100.00;102128.25;5072192;28;20035;-75
2023/09/25 04:52:48;;;;;;;4.53;3.10;;;;;;;9.89;100.00;102133.44;5067558;28;20020;-75
2023/09/25 04:55:13;;;;;;;5.22;3.20;;;;;;;9.91;100.00;102132.59;5072905;28;20032;-75
2023/09/25 04:57:40;;;;;;;5.28;3.50;;;;;;;9.88;100.00;102137.78;5069172;28;20040;-75
2023/09/25 05:00:13;;;;;;;5.63;3.38;;;;;;;9.88;100.00;102140.41;5075163;28;20349;-75
2023/09/25 05:02:38;;;;;;;4.68;3.15;;;;;;;9.82;100.00;102128.22;5063274;28;20025;-75
2023/09/25 05:05:04;;;;;;;5.45;2.97;;;;;;;9.85;100.00;102143.00;5067563;28;20032;-76
2023/09/25 05:07:29;;;;;;;7.65;3.70;;;;;;;9.85;100.00;102143.88;5071423;28;20390;-75
2023/09/25 05:09:55;;;;;;;9.43;3.83;;;;;;;9.87;100.00;102142.97;5073605;28;20020;-75
2023/09/25 05:12:20;;;;;;;6.03;3.80;;;;;;;9.78;100.00;102120.44;5069760;28;20371;-75
2023/09/25 05:14:45;;;;;;;5.22;3.20;;;;;;;9.87;100.00;102151.66;5071053;28;20061;-75
2023/09/25 05:17:11;;;;;;;5.22;3.30;;;;;;;9.84;100.00;102138.63;5074013;28;20029;-75
2023/09/25 05:19:36;;;;;;;3.72;2.75;;;;;;;9.83;100.00;102153.41;5072220;28;20033;-75
2023/09/25 05:22:01;;;;;;;7.97;3.38;;;;;;;9.78;100.00;102142.13;5062463;28;20013;-75
2023/09/25 05:24:27;;;;;;;9.23;3.80;;;;;;;9.81;100.00;102152.56;5070250;28;20361;-75
2023/09/25 05:26:52;;;;;;;4.88;3.15;;;;;;;9.81;100.00;102149.09;5068986;28;20476;-75
2023/09/25 05:29:17;;;;;;;5.45;3.58;;;;;;;9.82;100.00;102159.50;5067047;28;20029;-75
2023/09/25 05:31:42;;;;;;;5.25;3.42;;;;;;;9.84;100.00;102151.66;5066079;28;20052;-75
2023/09/25 05:34:08;;;;;;;6.72;3.38;;;;;;;9.83;100.00;102155.13;5064470;28;20036;-75
2023/09/25 05:36:33;;;;;;;8.02;3.42;;;;;;;9.79;100.00;102151.66;5064319;28;20021;-75
2023/09/25 05:38:58;;;;;;;5.97;3.55;;;;;;;9.76;100.00;102143.00;5064514;28;20483;-75
2023/09/25 05:41:24;;;;;;;5.78;3.25;;;;;;;9.85;100.00;102153.41;5063522;28;20025;-75
2023/09/25 05:43:49;;;;;;;8.13;3.33;;;;;;;9.86;100.00;102160.34;5067350;28;20040;-74
2023/09/25 05:46:14;;;;;;;8.40;3.45;;;;;;;9.84;100.00;102162.97;5074324;28;20021;-75
2023/09/25 05:48:40;;;;;;;6.35;3.30;;;;;;;9.88;100.00;102158.63;5069128;28;20075;-75
2023/09/25 05:51:05;;;;;;;6.45;3.13;;;;;;;9.91;100.00;102152.53;5071919;28;20032;-75
2023/09/25 05:53:30;;;;;;;6.22;3.17;;;;;;;9.92;100.00;102155.16;5069345;28;20537;-75
2023/09/25 05:55:56;;;;;;;6.65;3.22;;;;;;;9.99;100.00;102158.63;5070971;28;20082;-75
2023/09/25 05:58:21;;;;;;;7.22;3.30;;;;;;;10.03;100.00;102152.53;5068912;28;20049;-75
2023/09/25 06:00:47;;;;;;;5.25;3.15;;;;;;;10.13;100.00;102158.63;5071972;28;20476;-75
2023/09/25 06:03:13;;;;;;;6.95;3.10;;;;;;;10.18;100.00;102159.50;5069463;28;20048;-75
2023/09/25 06:05:39;;;;;;;5.18;3.30;;;;;;;10.24;100.00;102157.75;5070867;28;20056;-75
2023/09/25 06:08:06;;;;;;;6.88;3.40;;;;;;;10.31;100.00;102158.63;5068469;28;20071;-75
2023/09/25 06:10:32;;;;;;;6.10;3.65;;;;;;;10.40;100.00;102157.75;5071311;28;20052;-75
2023/09/25 06:12:58;;;;;;;5.70;3.25;;;;;;;10.45;100.00;102162.06;5069524;28;20042;-75
2023/09/25 06:15:23;;;;;;;9.52;3.60;;;;;;;10.50;100.00;102155.13;5071284;28;20369;-75
2023/09/25 06:17:49;;;;;;;5.45;3.22;;;;;;;10.59;100.00;102167.25;5070133;28;20422;-75
2023/09/25 06:20:15;;;;;;;7.43;2.97;;;;;;;10.65;100.00;102164.63;5065724;28;20074;-75
2023/09/25 06:22:43;;;;;;;5.82;3.30;;;;;;;10.72;100.00;102163.75;5069732;28;20111;-75
2023/09/25 06:25:13;;;;;;;6.03;3.17;;;;;;;10.79;100.00;102167.22;5071866;28;20353;-75
2023/09/25 06:27:39;;;;;;;6.15;3.10;;;;;;;10.85;100.00;102163.72;5069460;28;20033;-75
2023/09/25 06:30:06;;;;;;;6.18;3.25;;;;;;;10.91;100.00;102172.38;5069572;28;20057;-75
2023/09/25 06:32:31;;;;;;;5.35;3.03;;;;;;;10.92;100.00;102154.97;5067714;28;20029;-75
2023/09/25 06:34:56;;;;;;;6.72;3.08;;;;;;;11.07;100.00;102170.59;5071896;28;20361;-75
2023/09/25 06:37:22;;;;;;;10.18;3.20;;;;;;;11.16;100.00;102170.56;5056271;28;20048;-75
2023/09/25 06:39:47;;;;;;;6.88;3.05;;;;;;;11.28;100.00;102166.13;5057115;28;20736;-75
2023/09/25 06:42:12;;;;;;;4.85;3.10;;;;;;;11.38;100.00;102171.31;5063250;28;20104;-75
2023/09/25 06:44:38;;;;;;;6.38;3.50;;;;;;;11.44;100.00;102162.56;5053743;28;20036;-75
2023/09/25 06:47:03;;;;;;;5.35;2.85;;;;;;;11.52;100.00;102167.75;5065098;28;20025;-75
2023/09/25 06:49:30;;;;;;;5.72;3.50;;;;;;;11.56;100.00;102167.72;5062667;28;20480;-75
2023/09/25 06:51:55;;;;;;;5.65;3.17;;;;;;;11.61;100.00;102172.94;5063718;28;20025;-75
2023/09/25 06:54:20;;;;;;;4.40;3.17;;;;;;;11.67;100.00;102165.03;5065656;28;20032;-76
2023/09/25 06:56:45;;;;;;;4.22;2.95;;;;;;;11.76;100.00;102164.09;5061881;28;20045;-75
2023/09/25 06:59:11;;;;;;;4.72;2.75;;;;;;;11.88;100.00;102164.91;5057966;28;20016;-75
2023/09/25 07:01:37;;;;;;;4.80;2.88;;;;;;;12.00;100.00;102163.06;5060077;28;20017;-75
2023/09/25 07:04:02;;;;;;;9.07;3.15;;;;;;;12.05;100.00;102162.16;5059568;28;20032;-75
2023/09/25 07:06:27;;;;;;;4.78;2.72;;;;;;;12.23;100.00;102174.22;5065278;28;20060;-74
2023/09/25 07:08:52;;;;;;;4.65;2.88;;;;;;;12.39;100.00;102169.69;5066574;28;20028;-75
2023/09/25 07:11:18;;;;;;;5.97;2.60;;;;;;;12.54;100.00;102164.31;5070636;28;20024;-75
2023/09/25 07:13:43;;;;;;;4.15;2.58;;;;;;;12.64;100.00;102168.53;5067348;28;20032;-76
2023/09/25 07:16:10;;;;;;;4.28;2.60;;;;;;;12.72;100.00;102171.09;5068319;28;20043;-75
2023/09/25 07:18:36;;;;;;;4.05;2.60;;;;;;;12.83;100.00;102168.34;5067537;28;20416;-75
2023/09/25 07:21:03;;;;;;;4.90;2.45;;;;;;;12.94;100.00;102165.59;5067324;28;20027;-76
2023/09/25 07:23:29;;;;;;;3.58;2.40;;;;;;;13.03;100.00;102175.97;5057708;28;20028;-76
2023/09/25 07:26:05;;;;;;;3.70;2.22;;;;;;;13.13;100.00;102172.34;5072466;28;20013;-75
2023/09/25 07:28:31;;;;;;;3.38;2.50;;;;;;;13.26;100.00;102170.47;5066721;28;20039;-75
2023/09/25 07:30:59;;;;;;;3.17;2.17;;;;;;;13.37;100.00;102170.31;5068535;28;20031;-75
2023/09/25 07:33:24;;;;;;;4.57;2.20;;;;;;;13.44;100.00;102167.59;5066115;28;20032;-75
2023/09/25 07:35:50;;;;;;;3.95;2.30;;;;;;;13.48;100.00;102155.31;5062929;28;20036;-75
2023/09/25 07:38:15;;;;;;;3.47;2.45;;;;;;;13.56;100.00;102169.16;5068656;28;20074;-76
2023/09/25 07:40:41;;;;;;;5.15;2.50;;;;;;;13.63;100.00;102162.94;5069088;28;20047;-75
2023/09/25 07:43:07;;;;;;;4.20;2.28;;;;;;;13.68;100.00;102160.25;5069480;28;20555;-75
2023/09/25 07:45:32;;;;;;;4.18;2.45;;;;;;;13.72;100.00;102161.94;5066941;28;20123;-75
2023/09/25 07:47:59;;;;;;;3.80;2.28;;;;;;;13.73;100.00;102153.16;5067874;28;20104;-75
2023/09/25 07:50:25;;;;;;;3.25;2.00;;;;;;;13.83;100.00;102160.00;5067846;28;20028;-75
2023/09/25 07:52:54;;;;;;;6.18;2.53;;;;;;;13.83;100.00;102152.13;5057305;28;20032;-75
2023/09/25 07:55:21;;;;;;;6.40;2.72;;;;;;;13.84;100.00;102153.88;5065880;28;20034;-75
2023/09/25 07:57:46;;;;;;;3.95;1.98;;;;;;;13.90;100.00;102150.31;5058737;28;20029;-75
2023/09/25 08:00:37;;;;;;;3.78;2.47;;;;;;;13.89;100.00;102156.41;5052713;28;20366;-74
2023/09/25 08:03:01;;;;;;;4.32;2.08;;;;;;;13.97;100.00;102165.91;5053388;28;20115;-74
2023/09/25 08:05:28;;;;;;;5.70;2.25;;;;;;;14.04;100.00;102171.91;5053240;28;20529;-75
2023/09/25 08:07:53;;;;;;;3.78;2.30;;;;;;;14.12;100.00;102172.63;5063721;28;20415;-74
2023/09/25 08:10:19;;;;;;;4.22;2.70;;;;;;;14.18;100.00;102171.66;5062146;28;20021;-75
2023/09/25 08:12:45;;;;;;;3.35;2.28;;;;;;;14.18;100.00;102172.53;5065750;28;20028;-75
2023/09/25 08:15:11;;;;;;;4.03;2.10;;;;;;;14.20;100.00;102173.38;5059325;28;20040;-75
2023/09/25 08:17:38;;;;;;;5.05;2.25;;;;;;;14.25;100.00;102162.78;5049200;28;20496;-75
2023/09/25 08:20:22;;;;;;;4.60;2.13;;;;;;;14.24;100.00;102151.44;5065899;28;20031;-75
2023/09/25 08:22:51;;;;;;;3.80;2.30;;;;;;;14.32;100.00;102168.78;5066720;28;20028;-78
2023/09/25 08:25:17;;;;;;;4.93;2.33;;;;;;;14.31;100.00;102169.69;5057418;28;20369;-77
2023/09/25 08:27:43;;;;;;;3.33;2.13;;;;;;;14.33;100.00;102166.16;5061471;28;20051;-74
2023/09/25 08:30:10;;;;;;;3.85;2.45;;;;;;;14.34;100.00;102167.00;5061448;28;20427;-75
2023/09/25 08:32:35;;;;;;;4.40;2.20;;;;;;;14.38;100.00;102151.19;5065142;28;20078;-75
2023/09/25 08:35:01;;;;;;;4.63;2.75;;;;;;;14.52;100.00;102164.09;5062876;28;20032;-74
2023/09/25 08:37:28;;;;;;;4.88;2.28;;;;;;;14.66;100.00;102163.81;5062077;28;20433;-75
2023/09/25 08:39:53;;;;;;;3.92;2.50;;;;;;;14.81;100.00;102165.25;5061381;28;20032;-75
2023/09/25 08:42:21;;;;;;;3.92;2.67;;;;;;;14.87;100.00;102147.63;5069273;28;20103;-74
2023/09/25 08:44:50;;;;;;;4.22;2.47;;;;;;;15.06;100.00;102153.38;5063173;28;20543;-74
2023/09/25 08:47:18;;;;;;;5.43;2.80;;;;;;;15.15;100.00;102147.91;5057624;28;20114;-75
2023/09/25 08:49:44;;;;;;;5.28;2.20;;;;;;;15.31;100.00;102142.34;5072303;28;20341;-75
2023/09/25 08:52:09;;;;;;;7.97;2.83;;;;;;;15.42;100.00;102146.44;5071505;28;20024;-75
2023/09/25 08:54:35;;;;;;;4.47;2.47;;;;;;;15.57;100.00;102141.75;5071956;28;20033;-74
2023/09/25 08:57:02;;;;;;;2.47;1.88;;;;;;;15.69;100.00;102133.56;5073083;28;20048;-74
2023/09/25 08:59:29;;;;;;;5.25;2.55;;;;;;;15.81;100.00;102135.03;5070723;28;20033;-74
2023/09/25 09:01:54;;;;;;;3.40;2.25;;;;;;;15.93;100.00;102144.41;5074014;28;20530;-74
2023/09/25 09:04:23;;;;;;;4.30;2.33;;;;;;;16.04;100.00;102153.75;5068535;28;20032;-74
2023/09/25 09:06:48;;;;;;;3.53;2.10;;;;;;;16.04;100.00;102135.31;5073926;28;20036;-74
2023/09/25 09:09:13;;;;;;;3.67;2.38;;;;;;;16.17;100.00;102151.66;5068737;28;20036;-74
2023/09/25 09:11:48;;;;;;;4.38;2.50;;;;;;;16.30;100.00;102142.53;5074343;28;20021;-74
2023/09/25 09:14:14;;;;;;;6.40;2.50;;;;;;;16.41;100.00;102150.13;5068573;28;20074;-74
2023/09/25 09:16:39;;;;;;;3.45;2.20;;;;;;;16.47;100.00;102154.38;5069868;28;20037;-74
2023/09/25 09:19:07;;;;;;;3.72;2.38;;;;;;;16.49;100.00;102150.81;5070160;28;20111;-74
2023/09/25 09:21:33;;;;;;;2.97;2.20;;;;;;;16.52;100.00;102147.22;5069228;28;20024;-74
2023/09/25 09:23:59;;;;;;;4.78;2.17;;;;;;;16.59;100.00;102143.53;5073206;28;20024;-74
2023/09/25 09:26:25;;;;;;;4.82;2.53;;;;;;;16.54;100.00;102138.38;5073774;28;20025;-74
2023/09/25 09:28:53;;;;;;;5.50;2.40;;;;;;;16.48;100.00;102141.19;5069902;28;20064;-74
2023/09/25 09:31:19;;;;;;;6.35;2.10;;;;;;;16.47;100.00;102149.97;5074679;28;20032;-75
2023/09/25 09:33:45;;;;;;;3.55;2.30;;;;;;;16.36;100.00;102131.00;5069588;28;20025;-74
2023/09/25 09:36:12;;;;;;;3.97;2.30;;;;;;;16.30;100.00;102147.81;5073704;28;20028;-74
2023/09/25 09:38:39;;;;;;;4.35;2.35;;;;;;;16.30;100.00;102141.69;5069162;28;20512;-74
2023/09/25 09:41:06;;;;;;;3.83;2.05;;;;;;;16.37;100.00;102144.09;5060078;28;20111;-74
2023/09/25 09:43:31;;;;;;;4.28;2.10;;;;;;;16.53;100.00;102143.69;5069519;28;20040;-74
2023/09/25 09:45:57;;;;;;;4.30;2.20;;;;;;;16.68;100.00;102139.78;5072791;28;20025;-74
2023/09/25 09:48:23;;;;;;;4.10;2.50;;;;;;;16.83;100.00;102139.34;5070344;28;20515;-74
2023/09/25 09:50:52;;;;;;;6.45;2.38;;;;;;;16.96;100.00;102145.13;5071491;28;20032;-75
2023/09/25 09:53:17;;;;;;;3.28;1.95;;;;;;;17.09;100.00;102147.34;5069751;28;20499;-74
2023/09/25 09:55:44;;;;;;;2.03;1.60;;;;;;;17.30;100.00;102152.91;5071767;28;20084;-74
2023/09/25 09:58:11;;;;;;;3.80;2.15;;;;;;;17.38;100.00;102152.66;5068761;28;20031;-75
2023/09/25 10:00:41;;;;;;;5.90;2.17;;;;;;;17.41;100.00;102148.13;5072184;28;20037;-74
2023/09/25 10:03:08;;;;;;;3.20;2.13;;;;;;;17.47;100.00;102153.22;5068378;28;20025;-74
2023/09/25 10:05:47;;;;;;;2.88;2.00;;;;;;;17.61;100.00;102154.56;5071626;28;20483;-74
2023/09/25 10:08:12;;;;;;;4.75;2.05;;;;;;;17.73;100.00;102156.81;5068838;28;20461;-75
2023/09/25 10:10:41;;;;;;;2.25;1.98;;;;;;;17.76;100.00;102151.44;5070999;28;20028;-75
2023/09/25 10:13:28;;;;;;;4.22;1.88;;;;;;;17.90;100.00;102149.22;5068944;28;20104;-74
2023/09/25 10:15:58;;;;;;;3.35;1.90;;;;;;;17.92;100.00;102142.13;5071440;28;20053;-74
2023/09/25 10:18:30;;;;;;;4.53;2.00;;;;;;;17.97;100.00;102149.88;5069215;28;20032;-74
2023/09/25 10:21:25;;;;;;;3.83;1.80;;;;;;;18.13;100.00;102139.66;5069231;28;20090;-74
2023/09/25 10:23:54;;;;;;;6.38;1.98;;;;;;;18.19;100.00;102142.97;5068534;28;20036;-74
2023/09/25 10:26:26;;;;;;;2.50;1.70;;;;;;;18.25;100.00;102140.09;5072469;28;20128;-74
2023/09/25 10:29:12;;;;;;;5.32;1.77;;;;;;;18.35;100.00;102148.56;5069066;28;20035;-74
2023/09/25 10:31:37;;;;;;;5.45;1.88;;;;;;;18.45;100.00;102146.47;5070458;28;20043;-74
2023/09/25 10:34:07;;;;;;;3.47;1.70;;;;;;;18.49;100.00;102143.66;5070576;28;20021;-75
2023/09/25 10:36:36;;;;;;;3.92;2.10;;;;;;;18.63;100.00;102150.19;5072610;28;20039;-75
2023/09/25 10:39:05;;;;;;;4.80;1.73;;;;;;;18.75;100.00;102149.78;5068508;28;20384;-74
2023/09/25 10:41:30;;;;;;;4.03;1.58;;;;;;;18.87;100.00;102148.50;5072725;28;20383;-74
2023/09/25 10:43:57;;;;;;;5.40;2.17;;;;;;;18.89;100.00;102146.63;5067827;28;20115;-75
2023/09/25 10:46:22;;;;;;;2.72;1.67;;;;;;;18.99;100.00;102147.16;5072183;28;20048;-75
2023/09/25 10:48:47;;;;;;;2.67;1.75;;;;;;;19.08;100.00;102146.81;5060042;28;20025;-75
2023/09/25 10:51:20;;;;;;;2.35;1.60;;;;;;;19.24;100.00;102140.00;5102929;27;20125;-75
2023/09/25 10:53:46;;;;;;;2.33;1.77;;;;;;;19.29;100.00;102137.16;5105767;28;20054;-74
2023/09/25 10:56:11;;;;;;;5.40;1.65;;;;;;;19.40;100.00;102125.25;5101114;28;20055;-74
2023/09/25 10:58:37;;;;;;;5.07;1.95;;;;;;;19.49;100.00;102136.38;5102026;28;20089;-74
2023/09/25 11:01:04;;;;;;;4.68;1.90;;;;;;;19.59;100.00;102127.16;5108172;28;20055;-74
2023/09/25 11:03:31;;;;;;;2.47;1.77;;;;;;;19.63;100.00;102137.56;5107945;28;20150;-75
2023/09/25 11:05:57;;;;;;;4.13;1.90;;;;;;;19.64;100.00;102130.50;5108989;28;20097;-75
2023/09/25 11:08:26;;;;;;;3.78;1.63;;;;;;;19.63;100.00;102144.63;5108255;28;20016;-75
2023/09/25 11:10:51;;;;;;;3.25;1.65;;;;;;;19.62;100.00;102143.75;5104602;28;20023;-75
2023/09/25 11:13:17;;;;;;;2.47;1.85;;;;;;;19.61;100.00;102141.16;5109024;28;20032;-75
2023/09/25 11:15:44;;;;;;;3.33;1.95;;;;;;;19.70;100.00;102142.63;5105708;28;20107;-75